createdAt,value
2019-03-30T00:03:57.397Z,16.27
2019-03-30T00:08:50.842Z,24.63
2019-03-30T00:13:43.438Z,47.10
2019-03-30T00:18:36.511Z,22.67
2019-03-30T00:23:28.908Z,20.27
2019-03-30T00:28:21.633Z,17.07
2019-03-30T00:33:14.310Z,18.70
2019-03-30T00:38:07.097Z,26.10
2019-03-30T00:43:00.013Z,53.53
2019-03-30T00:47:52.704Z,40.37
2019-03-30T00:52:45.398Z,15.40
2019-03-30T00:57:38.025Z,96.27
2019-03-30T01:02:30.485Z,51.10
2019-03-30T01:07:43.825Z,26.07
2019-03-30T01:12:36.567Z,24.10
2019-03-30T01:17:28.900Z,12.87
2019-03-30T01:22:21.306Z,19.93
2019-03-30T01:27:13.632Z,38.30
2019-03-30T01:32:06.503Z,34.50
2019-03-30T01:36:59.113Z,36.20
2019-03-30T01:42:13.383Z,30.50
2019-03-30T01:47:06.003Z,28.33
2019-03-30T01:51:58.726Z,37.33
2019-03-30T01:56:51.437Z,18.10
2019-03-30T02:01:44.077Z,13.60
2019-03-30T02:06:36.660Z,23.77
2019-03-30T02:11:29.775Z,41.77
2019-03-30T02:16:22.594Z,18.10
2019-03-30T02:21:15.029Z,11.70
2019-03-30T02:26:07.860Z,12.67
2019-03-30T02:31:00.640Z,18.53
2019-03-30T02:35:53.279Z,71.57
2019-03-30T02:41:06.512Z,57.93
2019-03-30T02:45:59.491Z,65.60
2019-03-30T02:50:51.598Z,14.10
2019-03-30T02:55:44.061Z,12.03
2019-03-30T03:00:36.446Z,11.00
2019-03-30T03:05:28.739Z,34.83
2019-03-30T03:10:22.102Z,21.17
2019-03-30T03:15:14.670Z,24.40
2019-03-30T03:20:07.266Z,40.07
2019-03-30T03:24:59.611Z,16.30
2019-03-30T03:29:52.426Z,14.03
2019-03-30T03:34:44.920Z,15.07
2019-03-30T03:39:37.526Z,11.83
2019-03-30T03:44:29.855Z,13.80
2019-03-30T03:49:22.332Z,12.17
2019-03-30T03:54:15.242Z,13.67
2019-03-30T03:59:08.941Z,15.47
2019-03-30T04:04:03.310Z,23.77
2019-03-30T04:08:59.406Z,11.57
2019-03-30T04:13:54.690Z,11.07
2019-03-30T04:18:48.223Z,10.90
2019-03-30T04:23:41.696Z,12.17
2019-03-30T04:28:34.475Z,14.87
2019-03-30T04:33:26.699Z,11.67
2019-03-30T04:38:19.022Z,9.87
2019-03-30T04:43:12.029Z,11.10
2019-03-30T04:48:04.361Z,10.90
2019-03-30T04:52:56.653Z,11.03
2019-03-30T04:57:49.832Z,11.27
2019-03-30T05:02:42.604Z,12.37
2019-03-30T05:07:35.022Z,12.03
2019-03-30T05:12:27.457Z,11.13
2019-03-30T05:17:20.113Z,22.47
2019-03-30T05:22:16.490Z,14.30
2019-03-30T05:27:06.537Z,10.57
2019-03-30T05:31:59.261Z,12.27
2019-03-30T05:36:52.033Z,10.40
2019-03-30T05:41:44.066Z,11.30
2019-03-30T05:46:36.561Z,12.03
2019-03-30T05:51:29.043Z,11.30
2019-03-30T05:56:21.857Z,11.77
2019-03-30T06:01:14.268Z,17.37
2019-03-30T06:06:06.580Z,13.07
2019-03-30T06:11:00.283Z,15.53
2019-03-30T06:15:53.053Z,11.43
2019-03-30T06:20:45.649Z,13.37
2019-03-30T06:25:38.161Z,11.90
2019-03-30T06:30:30.673Z,11.17
2019-03-30T06:35:23.325Z,10.07
2019-03-30T06:40:16.198Z,11.17
2019-03-30T06:45:09.002Z,11.50
2019-03-30T06:50:01.443Z,11.50
2019-03-30T06:54:54.106Z,11.33
2019-03-30T06:59:48.488Z,12.93
2019-03-30T07:04:41.106Z,12.93
2019-03-30T07:09:35.613Z,13.53
2019-03-30T07:14:30.837Z,13.90
2019-03-30T07:19:26.293Z,13.53
2019-03-30T07:24:18.432Z,13.40
2019-03-30T07:29:10.841Z,13.57
2019-03-30T07:34:03.735Z,12.40
2019-03-30T07:38:56.109Z,11.80
2019-03-30T07:43:48.860Z,11.12
2019-03-30T07:48:41.457Z,12.07
2019-03-30T07:53:44.471Z,11.00
2019-03-30T07:58:28.200Z,11.12
2019-03-30T08:03:20.814Z,12.90
2019-03-30T08:08:13.450Z,11.93
2019-03-30T08:13:05.958Z,11.75
2019-03-30T08:17:58.624Z,11.38
2019-03-30T08:22:51.019Z,9.98
2019-03-30T08:27:43.756Z,10.72
2019-03-30T08:32:36.614Z,10.32
2019-03-30T08:37:29.018Z,10.25
2019-03-30T08:42:21.418Z,9.95
2019-03-30T08:47:14.125Z,9.35
2019-03-30T08:52:06.503Z,10.78
2019-03-30T08:56:59.180Z,9.30
2019-03-30T09:01:51.673Z,10.32
2019-03-30T09:06:44.493Z,8.63
2019-03-30T09:11:37.109Z,13.15
2019-03-30T09:16:29.770Z,9.40
2019-03-30T09:21:22.502Z,13.95
2019-03-30T09:26:16.782Z,8.58
2019-03-30T09:31:09.510Z,9.75
2019-03-30T09:36:01.928Z,10.13
2019-03-30T09:40:54.688Z,13.53
2019-03-30T09:45:47.061Z,9.38
2019-03-30T09:50:39.365Z,10.43
2019-03-30T09:55:32.028Z,8.53
2019-03-30T10:00:24.458Z,8.70
2019-03-30T10:05:16.997Z,10.13
2019-03-30T10:10:09.841Z,7.75
2019-03-30T10:15:02.500Z,8.15
2019-03-30T10:20:04.080Z,10.65
2019-03-30T10:24:49.348Z,9.35
2019-03-30T10:29:41.757Z,8.10
2019-03-30T10:34:34.381Z,8.63
2019-03-30T10:39:28.070Z,8.80
2019-03-30T10:44:20.757Z,8.90
2019-03-30T10:49:14.114Z,8.70
2019-03-30T10:54:06.509Z,8.68
2019-03-30T10:58:58.921Z,8.88
2019-03-30T11:03:51.391Z,7.90
2019-03-30T11:08:43.838Z,8.33
2019-03-30T11:13:36.618Z,8.55
2019-03-30T11:18:29.334Z,9.78
2019-03-30T11:23:22.018Z,8.90
2019-03-30T11:28:14.408Z,7.58
2019-03-30T11:33:07.088Z,7.53
2019-03-30T11:37:59.815Z,6.80
2019-03-30T11:42:52.401Z,7.35
2019-03-30T11:47:45.263Z,7.92
2019-03-30T11:52:37.975Z,8.20
2019-03-30T11:57:30.365Z,7.12
2019-03-30T12:02:28.144Z,7.17
2019-03-30T12:07:16.859Z,10.03
2019-03-30T12:12:09.488Z,6.37
2019-03-30T12:17:02.031Z,9.25
2019-03-30T12:21:54.573Z,6.78
2019-03-30T12:31:48.206Z,6.45
2019-03-30T12:36:40.761Z,6.00
2019-03-30T12:41:33.319Z,6.37
2019-03-30T12:46:26.169Z,6.67
2019-03-30T12:51:18.881Z,5.45
2019-03-30T12:56:11.208Z,4.67
2019-03-30T13:01:03.458Z,5.10
2019-03-30T13:05:55.994Z,5.37
2019-03-30T13:10:48.814Z,5.33
2019-03-30T13:15:41.146Z,5.58
2019-03-30T13:20:33.912Z,4.47
2019-03-30T13:25:26.829Z,4.67
2019-03-30T13:30:19.645Z,4.72
2019-03-30T13:35:12.333Z,5.75
2019-03-30T13:40:07.070Z,5.22
2019-03-30T13:45:03.146Z,5.80
2019-03-30T13:49:54.042Z,5.55
2019-03-30T13:54:46.397Z,4.65
2019-03-30T13:59:38.849Z,4.72
2019-03-30T14:04:31.663Z,4.15
2019-03-30T14:09:23.999Z,6.05
2019-03-30T14:14:16.524Z,4.85
2019-03-30T14:19:09.529Z,4.53
2019-03-30T14:24:02.030Z,4.22
2019-03-30T14:28:54.394Z,4.72
2019-03-30T14:33:46.865Z,4.42
2019-03-30T14:38:39.373Z,4.55
2019-03-30T14:43:31.746Z,4.47
2019-03-30T14:48:24.181Z,4.80
2019-03-30T14:53:16.789Z,5.22
2019-03-30T14:58:09.377Z,5.03
2019-03-30T15:03:01.895Z,4.78
2019-03-30T15:07:54.441Z,4.67
2019-03-30T15:12:47.295Z,3.98
2019-03-30T15:17:41.449Z,4.80
2019-03-30T15:22:33.237Z,7.60
2019-03-30T15:27:26.042Z,4.15
2019-03-30T15:32:18.729Z,5.65
2019-03-30T15:37:11.529Z,4.45
2019-03-30T15:42:04.620Z,3.40
2019-03-30T15:46:57.317Z,3.20
2019-03-30T15:51:49.718Z,4.28
2019-03-30T15:56:42.257Z,3.95
2019-03-30T16:01:34.794Z,4.28
2019-03-30T16:06:27.325Z,7.03
2019-03-30T16:11:20.089Z,3.87
2019-03-30T16:16:12.749Z,5.62
2019-03-30T16:21:05.141Z,7.20
2019-03-30T16:25:57.490Z,4.35
2019-03-30T16:30:50.450Z,3.27
2019-03-30T16:35:42.807Z,5.67
2019-03-30T16:40:35.355Z,8.00
2019-03-30T16:45:27.790Z,6.08
2019-03-30T16:50:20.617Z,5.90
2019-03-30T16:55:13.466Z,5.97
2019-03-30T17:00:08.042Z,6.17
2019-03-30T17:05:00.817Z,4.60
2019-03-30T17:09:53.598Z,5.40
2019-03-30T17:14:46.392Z,3.85
2019-03-30T17:19:38.794Z,3.92
2019-03-30T17:24:31.553Z,4.22
2019-03-30T17:29:24.222Z,6.33
2019-03-30T17:34:16.833Z,7.08
2019-03-30T17:39:10.437Z,24.05
2019-03-30T17:44:03.045Z,12.60
2019-03-30T17:48:55.674Z,14.50
2019-03-30T17:53:48.406Z,16.42
2019-03-30T17:58:41.203Z,19.65
2019-03-30T18:03:33.969Z,18.10
2019-03-30T18:08:26.468Z,31.15
2019-03-30T18:13:18.735Z,32.88
2019-03-30T18:18:11.109Z,26.00
2019-03-30T18:23:03.765Z,18.32
2019-03-30T18:27:56.315Z,15.28
2019-03-30T18:32:49.185Z,20.77
2019-03-30T18:37:41.848Z,21.82
2019-03-30T18:42:34.545Z,22.62
2019-03-30T18:47:27.343Z,28.73
2019-03-30T18:52:20.381Z,40.98
2019-03-30T18:57:13.698Z,28.83
2019-03-30T19:02:06.632Z,34.60
2019-03-30T19:07:03.936Z,39.65
2019-03-30T19:11:56.274Z,36.45
2019-03-30T19:16:50.401Z,41.92
2019-03-30T19:21:42.944Z,28.65
2019-03-30T19:26:35.325Z,46.42
2019-03-30T19:31:27.836Z,84.45
2019-03-30T19:36:20.550Z,70.17
2019-03-30T19:41:13.273Z,43.70
2019-03-30T19:46:06.004Z,31.62
2019-03-30T19:50:58.704Z,50.40
2019-03-30T19:55:51.225Z,64.67
2019-03-30T20:00:43.873Z,52.15
2019-03-30T20:05:36.241Z,41.35
2019-03-30T20:10:28.664Z,34.33
2019-03-30T20:15:21.244Z,33.42
2019-03-30T20:20:13.974Z,24.25
2019-03-30T20:25:08.663Z,21.50
2019-03-30T20:30:01.154Z,22.00
2019-03-30T20:34:54.105Z,24.32
2019-03-30T20:39:46.881Z,33.15
2019-03-30T20:44:39.197Z,30.93
2019-03-30T20:49:31.893Z,21.67
2019-03-30T20:54:24.241Z,17.27
2019-03-30T20:59:16.649Z,17.02
2019-03-30T21:04:09.561Z,19.73
2019-03-30T21:09:02.198Z,34.03
2019-03-30T21:13:56.739Z,21.57
2019-03-30T21:18:49.037Z,20.47
2019-03-30T21:23:41.657Z,34.03
2019-03-30T21:28:34.425Z,25.53
2019-03-30T21:33:27.571Z,23.40
2019-03-30T21:38:20.079Z,32.93
2019-03-30T21:43:12.711Z,42.37
2019-03-30T21:48:05.425Z,54.10
2019-03-30T21:52:58.090Z,58.10
2019-03-30T21:57:50.747Z,34.30
2019-03-30T22:02:42.991Z,36.33
2019-03-30T22:07:35.425Z,40.77
2019-03-30T22:12:27.954Z,33.00
2019-03-30T22:17:20.677Z,32.03
2019-03-30T22:22:12.733Z,67.60
2019-03-30T22:27:05.609Z,38.60
2019-03-30T22:31:58.294Z,41.63
2019-03-30T22:36:50.811Z,59.10
2019-03-30T22:41:43.322Z,44.90
2019-03-30T22:46:36.201Z,44.57
2019-03-30T22:51:28.460Z,22.23
2019-03-30T22:56:21.414Z,16.27
2019-03-30T23:01:15.749Z,17.53
2019-03-30T23:06:08.514Z,14.13
2019-03-30T23:11:01.075Z,14.27
2019-03-30T23:15:53.595Z,13.67
2019-03-30T23:20:46.226Z,12.37
2019-03-30T23:25:38.870Z,12.30
2019-03-30T23:30:31.310Z,13.20
2019-03-30T23:35:24.088Z,13.17
2019-03-30T23:40:16.750Z,19.90
2019-03-30T23:45:09.389Z,20.67
2019-03-30T23:50:02.018Z,28.60
2019-03-30T23:54:54.693Z,19.80
2019-03-30T23:59:47.850Z,31.50
